createdAt,value
2019-01-31T00:01:08.424Z,4.17
2019-01-31T00:04:13.828Z,4.05
2019-01-31T00:07:07.437Z,4.18
2019-01-31T00:10:06.956Z,4.13
2019-01-31T00:13:26.021Z,4.04
2019-01-31T00:16:40.167Z,3.95
2019-01-31T00:19:33.196Z,3.94
2019-01-31T00:22:53.922Z,3.99
2019-01-31T00:26:16.062Z,4.14
2019-01-31T00:29:03.503Z,4.07
2019-01-31T00:31:54.554Z,4.07
2019-01-31T00:35:03.169Z,4.24
2019-01-31T00:37:47.997Z,4.28
2019-01-31T00:40:46.321Z,4.28
2019-01-31T00:44:01.847Z,4.34
2019-01-31T00:46:48.066Z,4.22
2019-01-31T00:49:49.646Z,4.02
2019-01-31T00:52:58.083Z,3.25
2019-01-31T00:55:43.539Z,3.92
2019-01-31T00:58:56.915Z,3.90
2019-01-31T01:02:06.714Z,3.85
2019-01-31T01:05:25.726Z,3.86
2019-01-31T01:08:35.433Z,3.80
2019-01-31T01:11:40.550Z,3.67
2019-01-31T01:14:34.431Z,3.67
2019-01-31T01:17:14.176Z,3.83
2019-01-31T01:20:54.666Z,3.84
2019-01-31T01:23:59.275Z,3.72
2019-01-31T01:26:57.766Z,3.72
2019-01-31T01:29:47.778Z,3.63
2019-01-31T01:32:45.195Z,3.47
2019-01-31T01:35:52.355Z,3.46
2019-01-31T01:38:47.638Z,3.51
2019-01-31T01:41:53.587Z,3.47
2019-01-31T01:45:01.230Z,3.35
2019-01-31T01:47:44.658Z,3.30
2019-01-31T01:50:39.379Z,3.32
2019-01-31T01:53:54.623Z,3.36
2019-01-31T01:56:39.953Z,3.30
2019-01-31T01:59:31.014Z,3.16
2019-01-31T02:02:31.195Z,3.16
2019-01-31T02:05:09.819Z,3.06
2019-01-31T02:08:13.552Z,2.95
2019-01-31T02:11:17.129Z,2.88
2019-01-31T02:14:25.645Z,2.91
2019-01-31T02:17:22.887Z,2.91
2019-01-31T02:20:39.454Z,3.05
2019-01-31T02:23:40.259Z,3.10
2019-01-31T02:26:41.809Z,3.15
2019-01-31T02:29:37.288Z,3.02
2019-01-31T02:32:53.112Z,3.08
2019-01-31T02:35:34.745Z,3.02
2019-01-31T02:38:11.908Z,2.98
2019-01-31T02:41:04.548Z,2.88
2019-01-31T02:44:20.647Z,2.89
2019-01-31T02:47:31.294Z,2.95
2019-01-31T02:50:23.952Z,2.98
2019-01-31T02:53:20.609Z,2.91
2019-01-31T02:56:25.926Z,2.91
2019-01-31T02:59:39.885Z,2.99
2019-01-31T03:02:24.856Z,3.03
2019-01-31T03:05:07.363Z,3.16
2019-01-31T03:08:10.792Z,3.25
2019-01-31T03:10:58.287Z,3.34
2019-01-31T03:13:54.766Z,3.41
2019-01-31T03:16:59.954Z,3.32
2019-01-31T03:19:47.033Z,3.29
2019-01-31T03:22:59.179Z,3.22
2019-01-31T03:26:04.967Z,3.04
2019-01-31T03:29:27.659Z,3.05
2019-01-31T03:32:10.623Z,3.12
2019-01-31T03:35:36.499Z,3.21
2019-01-31T03:38:24.100Z,1.61
2019-01-31T03:41:27.814Z,1.61
2019-01-31T03:44:44.171Z,3.34
2019-01-31T03:48:07.669Z,3.37
2019-01-31T03:50:44.384Z,3.50
2019-01-31T03:53:50.257Z,3.58
2019-01-31T03:56:52.805Z,3.58
2019-01-31T03:59:45.463Z,3.54
2019-01-31T04:02:49.241Z,3.77
2019-01-31T04:05:52.049Z,3.77
2019-01-31T04:08:21.422Z,3.84
2019-01-31T04:10:50.817Z,3.29
2019-01-31T04:13:20.186Z,3.01
2019-01-31T04:15:49.562Z,2.94
2019-01-31T04:18:18.964Z,2.83
2019-01-31T04:20:51.071Z,2.64
2019-01-31T04:23:19.435Z,2.54
2019-01-31T04:25:48.809Z,2.54
2019-01-31T04:28:18.180Z,2.61
2019-01-31T04:30:47.508Z,2.69
2019-01-31T04:33:16.864Z,2.79
2019-01-31T04:35:46.223Z,2.75
2019-01-31T04:38:15.583Z,2.65
2019-01-31T04:40:44.947Z,2.67
2019-01-31T04:43:14.314Z,2.60
2019-01-31T04:45:43.716Z,2.79
2019-01-31T04:48:13.135Z,2.89
2019-01-31T04:50:42.458Z,2.89
2019-01-31T04:53:11.904Z,2.81
2019-01-31T04:55:41.403Z,2.69
2019-01-31T04:58:10.757Z,2.59
2019-01-31T05:00:40.204Z,2.57
2019-01-31T05:03:09.653Z,2.53
2019-01-31T05:05:39.020Z,2.50
2019-01-31T05:08:08.367Z,2.50
2019-01-31T05:10:43.181Z,2.47
2019-01-31T05:13:08.870Z,2.44
2019-01-31T05:15:38.262Z,2.63
2019-01-31T05:18:07.669Z,2.63
2019-01-31T05:20:37.071Z,2.60
2019-01-31T05:23:06.446Z,2.67
2019-01-31T05:25:35.844Z,2.77
2019-01-31T05:28:05.316Z,2.80
2019-01-31T05:30:34.717Z,2.84
2019-01-31T05:33:04.234Z,2.92
2019-01-31T05:35:33.548Z,3.06
2019-01-31T05:38:02.912Z,3.08
2019-01-31T05:40:32.255Z,3.14
2019-01-31T05:43:01.633Z,3.22
2019-01-31T05:45:30.976Z,3.24
2019-01-31T05:48:00.381Z,3.19
2019-01-31T05:50:29.793Z,3.05
2019-01-31T05:52:59.469Z,3.08
2019-01-31T05:55:28.859Z,3.16
2019-01-31T05:57:59.957Z,3.19
2019-01-31T06:00:32.788Z,3.21
2019-01-31T06:03:02.229Z,3.26
2019-01-31T06:05:31.955Z,3.34
2019-01-31T06:08:01.284Z,3.46
2019-01-31T06:10:33.522Z,3.58
2019-01-31T06:13:01.960Z,3.67
2019-01-31T06:15:31.365Z,3.71
2019-01-31T06:18:00.769Z,3.74
2019-01-31T06:20:30.161Z,3.84
2019-01-31T06:22:59.528Z,3.85
2019-01-31T06:25:29.050Z,3.96
2019-01-31T06:27:58.386Z,4.08
2019-01-31T06:30:27.863Z,4.00
2019-01-31T06:32:57.250Z,4.01
2019-01-31T06:35:26.565Z,4.02
2019-01-31T06:37:55.928Z,3.98
2019-01-31T06:40:25.266Z,3.90
2019-01-31T06:42:54.676Z,4.00
2019-01-31T06:45:24.023Z,4.09
2019-01-31T06:47:53.419Z,3.34
2019-01-31T06:50:22.791Z,4.29
2019-01-31T06:52:52.124Z,4.25
2019-01-31T06:55:21.481Z,4.12
2019-01-31T06:57:50.823Z,4.21
2019-01-31T07:00:22.179Z,4.32
2019-01-31T07:02:52.030Z,4.47
2019-01-31T07:05:21.410Z,4.64
2019-01-31T07:07:50.797Z,4.56
2019-01-31T07:10:25.462Z,4.48
2019-01-31T07:12:54.766Z,4.59
2019-01-31T07:15:24.130Z,5.25
2019-01-31T07:17:53.501Z,5.98
2019-01-31T07:20:22.857Z,5.57
2019-01-31T07:22:52.223Z,4.92
2019-01-31T07:25:23.519Z,4.55
2019-01-31T07:27:52.991Z,4.58
2019-01-31T07:30:22.563Z,4.67
2019-01-31T07:32:51.917Z,4.73
2019-01-31T07:35:21.251Z,4.65
2019-01-31T07:37:52.990Z,4.61
2019-01-31T07:40:22.178Z,4.60
2019-01-31T07:42:51.524Z,4.74
2019-01-31T07:45:26.197Z,4.72
2019-01-31T07:47:55.550Z,4.74
2019-01-31T07:50:25.000Z,4.84
2019-01-31T07:52:54.621Z,4.68
2019-01-31T07:55:23.955Z,4.66
2019-01-31T07:57:53.287Z,4.76
2019-01-31T08:00:22.814Z,4.88
2019-01-31T08:02:52.171Z,5.11
2019-01-31T08:05:22.244Z,6.08
2019-01-31T08:07:53.090Z,7.09
2019-01-31T08:10:24.963Z,8.61
2019-01-31T08:12:54.408Z,9.31
2019-01-31T08:15:23.752Z,9.85
2019-01-31T08:17:53.100Z,10.34
2019-01-31T08:20:22.456Z,10.89
2019-01-31T08:22:51.801Z,9.92
2019-01-31T08:25:21.365Z,9.93
2019-01-31T08:27:52.147Z,10.37
2019-01-31T08:30:26.725Z,10.34
2019-01-31T08:32:56.129Z,10.30
2019-01-31T08:35:25.608Z,11.27
2019-01-31T08:37:55.040Z,10.88
2019-01-31T08:40:24.370Z,10.60
2019-01-31T08:42:53.955Z,10.55
2019-01-31T08:45:23.286Z,10.61
2019-01-31T08:47:52.656Z,10.60
2019-01-31T08:50:23.902Z,10.02
2019-01-31T08:52:53.272Z,10.41
2019-01-31T08:58:13.325Z,10.35
2019-01-31T09:00:42.696Z,11.05
2019-01-31T09:03:12.098Z,11.41
2019-01-31T09:05:41.443Z,11.44
2019-01-31T09:08:10.823Z,10.28
2019-01-31T09:10:40.780Z,9.91
2019-01-31T09:13:11.866Z,9.46
2019-01-31T09:15:41.216Z,9.26
2019-01-31T09:18:10.730Z,9.61
2019-01-31T09:20:49.526Z,9.30
2019-01-31T09:23:29.882Z,8.79
2019-01-31T09:26:23.210Z,8.41
2019-01-31T09:29:29.431Z,8.20
2019-01-31T09:32:25.990Z,8.51
2019-01-31T09:35:09.474Z,9.20
2019-01-31T09:38:35.075Z,8.97
2019-01-31T09:41:37.721Z,8.67
2019-01-31T09:44:28.391Z,8.72
2019-01-31T09:47:41.760Z,8.53
2019-01-31T09:50:35.275Z,8.06
2019-01-31T09:54:03.726Z,7.96
2019-01-31T09:57:22.910Z,8.02
2019-01-31T10:00:38.315Z,7.99
2019-01-31T10:03:42.715Z,7.99
2019-01-31T10:06:47.916Z,8.25
2019-01-31T10:09:56.575Z,8.48
2019-01-31T10:13:09.992Z,8.64
2019-01-31T10:16:10.890Z,9.10
2019-01-31T10:19:26.332Z,9.21
2019-01-31T10:22:10.666Z,9.14
2019-01-31T10:25:13.685Z,9.08
2019-01-31T10:28:13.048Z,9.22
2019-01-31T10:31:14.475Z,9.18
2019-01-31T10:34:15.876Z,9.11
2019-01-31T10:37:10.651Z,8.98
2019-01-31T10:40:06.193Z,9.17
2019-01-31T10:43:01.726Z,9.18
2019-01-31T10:45:51.840Z,8.99
2019-01-31T10:49:08.126Z,9.11
2019-01-31T10:52:25.680Z,9.18
2019-01-31T10:55:46.440Z,8.92
2019-01-31T10:58:26.843Z,8.80
2019-01-31T11:01:09.121Z,8.53
2019-01-31T11:04:09.492Z,8.49
2019-01-31T11:07:14.635Z,8.52
2019-01-31T11:10:08.175Z,8.52
2019-01-31T11:13:04.281Z,8.48
2019-01-31T11:16:22.195Z,8.73
2019-01-31T11:19:27.136Z,8.52
2019-01-31T11:22:52.778Z,8.33
2019-01-31T11:25:44.658Z,8.23
2019-01-31T11:28:53.626Z,8.22
2019-01-31T11:32:18.996Z,8.31
2019-01-31T11:35:21.670Z,8.17
2019-01-31T11:38:26.466Z,7.86
2019-01-31T11:41:32.653Z,7.85
2019-01-31T11:44:38.034Z,7.77
2019-01-31T11:47:44.488Z,7.80
2019-01-31T11:50:53.970Z,6.78
2019-01-31T11:53:51.536Z,7.77
2019-01-31T11:57:10.659Z,7.74
2019-01-31T11:59:40.021Z,7.70
2019-01-31T12:02:09.608Z,7.53
2019-01-31T12:04:39.065Z,7.55
2019-01-31T12:07:08.428Z,7.63
2019-01-31T12:09:37.828Z,7.61
2019-01-31T12:12:07.168Z,7.63
2019-01-31T12:14:36.572Z,7.61
2019-01-31T12:17:06.277Z,7.70
2019-01-31T12:19:35.921Z,7.71
2019-01-31T12:22:05.373Z,7.75
2019-01-31T12:24:34.687Z,7.87
2019-01-31T12:27:04.124Z,7.97
2019-01-31T12:29:33.545Z,7.94
2019-01-31T12:32:03.013Z,7.90
2019-01-31T12:34:32.343Z,7.82
2019-01-31T12:37:01.712Z,7.73
2019-01-31T12:39:31.081Z,7.72
2019-01-31T12:42:00.500Z,7.72
2019-01-31T12:44:29.964Z,7.82
2019-01-31T12:46:59.318Z,7.89
2019-01-31T12:49:28.668Z,7.85
2019-01-31T12:51:58.459Z,7.84
2019-01-31T12:54:28.052Z,7.75
2019-01-31T12:56:57.401Z,7.73
2019-01-31T12:59:26.878Z,7.64
2019-01-31T13:01:56.242Z,7.69
2019-01-31T13:04:25.608Z,7.78
2019-01-31T13:06:54.931Z,8.05
2019-01-31T13:09:24.387Z,8.29
2019-01-31T13:11:53.942Z,8.35
2019-01-31T13:14:24.454Z,8.42
2019-01-31T13:16:53.836Z,8.23
2019-01-31T13:19:23.369Z,8.14
2019-01-31T13:21:52.742Z,7.94
2019-01-31T13:24:22.094Z,7.90
2019-01-31T13:26:51.421Z,7.95
2019-01-31T13:29:20.807Z,8.01
2019-01-31T13:31:50.199Z,8.07
2019-01-31T13:34:19.549Z,7.88
2019-01-31T13:36:48.976Z,7.89
2019-01-31T13:39:18.622Z,7.94
2019-01-31T13:41:48.054Z,7.86
2019-01-31T13:44:17.409Z,7.71
2019-01-31T13:46:46.800Z,7.58
2019-01-31T13:49:17.998Z,7.45
2019-01-31T13:51:47.408Z,7.41
2019-01-31T13:54:16.780Z,7.34
2019-01-31T13:56:46.240Z,7.38
2019-01-31T13:59:15.699Z,7.34
2019-01-31T14:01:45.154Z,7.30
2019-01-31T14:04:15.003Z,7.28
2019-01-31T14:06:44.321Z,7.26
2019-01-31T14:09:13.672Z,7.18
2019-01-31T14:11:43.096Z,7.46
2019-01-31T14:14:12.893Z,7.46
2019-01-31T14:16:47.625Z,7.55
2019-01-31T14:19:13.436Z,7.59
2019-01-31T14:21:44.185Z,7.66
2019-01-31T14:24:13.686Z,7.68
2019-01-31T14:26:43.090Z,7.69
2019-01-31T14:29:12.513Z,7.66
2019-01-31T14:31:42.299Z,7.70
2019-01-31T14:34:13.710Z,7.60
2019-01-31T14:36:43.507Z,7.50
2019-01-31T14:39:12.982Z,7.52
2019-01-31T14:41:42.365Z,7.47
2019-01-31T14:44:20.123Z,7.53
2019-01-31T14:46:42.859Z,7.55
2019-01-31T14:49:12.224Z,7.53
2019-01-31T14:51:41.597Z,7.56
2019-01-31T14:54:10.921Z,7.61
2019-01-31T14:56:40.260Z,7.65
2019-01-31T14:59:09.576Z,7.67
2019-01-31T15:01:38.987Z,7.49
2019-01-31T15:04:08.349Z,7.50
2019-01-31T15:06:37.680Z,7.49
2019-01-31T15:09:09.454Z,7.49
2019-01-31T15:11:38.819Z,7.49
2019-01-31T15:14:08.299Z,7.42
2019-01-31T15:16:37.672Z,7.40
2019-01-31T15:19:07.042Z,7.41
2019-01-31T15:21:36.408Z,7.30
2019-01-31T15:24:05.847Z,7.22
2019-01-31T15:26:35.174Z,7.19
2019-01-31T15:29:04.591Z,6.83
2019-01-31T15:31:33.910Z,5.95
2019-01-31T15:34:03.560Z,5.41
2019-01-31T15:36:32.899Z,5.02
2019-01-31T15:39:02.253Z,4.64
2019-01-31T15:41:31.679Z,4.36
2019-01-31T15:44:01.027Z,4.17
2019-01-31T15:46:30.393Z,4.00
2019-01-31T15:48:59.746Z,3.86
2019-01-31T15:51:29.099Z,3.77
2019-01-31T15:53:58.477Z,3.65
2019-01-31T15:56:27.834Z,3.65
2019-01-31T15:58:57.750Z,3.42
2019-01-31T16:01:27.080Z,3.50
2019-01-31T16:03:56.452Z,3.50
2019-01-31T16:06:25.904Z,3.20
2019-01-31T16:08:55.659Z,3.19
2019-01-31T16:11:25.170Z,3.20
2019-01-31T16:13:54.584Z,3.20
2019-01-31T16:16:23.911Z,3.20
2019-01-31T16:18:53.268Z,3.34
2019-01-31T16:21:22.663Z,3.27
2019-01-31T16:23:52.019Z,3.27
2019-01-31T16:26:21.490Z,3.27
2019-01-31T16:28:50.883Z,3.41
2019-01-31T16:31:20.487Z,3.49
2019-01-31T16:33:49.865Z,3.38
2019-01-31T16:36:19.329Z,3.38
2019-01-31T16:38:49.869Z,3.43
2019-01-31T16:41:19.392Z,3.46
2019-01-31T16:43:48.669Z,3.46
2019-01-31T16:46:18.008Z,3.52
2019-01-31T16:48:47.412Z,3.55
2019-01-31T16:51:16.866Z,3.64
2019-01-31T16:53:46.306Z,3.61
2019-01-31T16:56:15.679Z,3.63
2019-01-31T16:58:45.044Z,3.63
2019-01-31T17:01:16.015Z,3.58
2019-01-31T17:03:45.600Z,3.56
2019-01-31T17:06:14.962Z,3.52
2019-01-31T17:08:44.312Z,3.55
2019-01-31T17:11:13.642Z,3.55
2019-01-31T17:13:42.981Z,3.60
2019-01-31T17:16:12.320Z,3.60
2019-01-31T17:18:41.685Z,3.65
2019-01-31T17:21:11.033Z,3.65
2019-01-31T17:23:40.931Z,3.71
2019-01-31T17:26:10.304Z,3.73
2019-01-31T17:28:39.755Z,3.79
2019-01-31T17:31:09.127Z,3.86
2019-01-31T17:33:38.503Z,3.87
2019-01-31T17:36:07.853Z,3.88
2019-01-31T17:38:37.199Z,3.92
2019-01-31T17:41:06.546Z,3.91
2019-01-31T17:43:35.889Z,4.00
2019-01-31T17:46:06.509Z,4.01
2019-01-31T17:48:35.864Z,4.04
2019-01-31T17:51:05.383Z,4.04
2019-01-31T17:53:34.698Z,4.10
2019-01-31T17:56:05.164Z,4.10
2019-01-31T17:58:34.493Z,4.17
2019-01-31T18:01:03.890Z,4.20
2019-01-31T18:03:33.287Z,4.20
2019-01-31T18:06:02.652Z,4.15
2019-01-31T18:08:32.015Z,4.13
2019-01-31T18:11:01.377Z,4.15
2019-01-31T18:13:30.830Z,4.12
2019-01-31T18:16:00.175Z,4.17
2019-01-31T18:18:29.542Z,4.18
2019-01-31T18:20:58.891Z,4.17
2019-01-31T18:23:28.227Z,4.17
2019-01-31T18:25:58.949Z,4.17
2019-01-31T18:28:28.283Z,4.20
2019-01-31T18:30:57.587Z,4.29
2019-01-31T18:33:27.755Z,4.28
2019-01-31T18:35:57.299Z,4.25
2019-01-31T18:38:26.660Z,4.23
2019-01-31T18:40:56.009Z,4.23
2019-01-31T18:43:25.335Z,4.24
2019-01-31T18:45:54.739Z,4.21
2019-01-31T18:48:24.419Z,4.29
2019-01-31T18:50:53.967Z,4.22
2019-01-31T18:53:23.340Z,4.25
2019-01-31T18:55:52.670Z,4.27
2019-01-31T18:58:23.173Z,4.29
2019-01-31T19:00:52.826Z,4.24
2019-01-31T19:03:22.420Z,4.18
2019-01-31T19:05:52.096Z,4.14
2019-01-31T19:08:21.456Z,4.07
2019-01-31T19:10:50.794Z,4.13
2019-01-31T19:13:20.189Z,4.13
2019-01-31T19:15:50.814Z,4.06
2019-01-31T19:18:20.133Z,4.06
2019-01-31T19:20:49.497Z,4.05
2019-01-31T19:23:19.203Z,4.04
2019-01-31T19:25:48.562Z,3.98
2019-01-31T19:28:18.048Z,4.01
2019-01-31T19:30:47.842Z,3.95
2019-01-31T19:33:17.269Z,3.87
2019-01-31T19:35:46.620Z,3.77
2019-01-31T19:38:16.500Z,3.73
2019-01-31T19:40:46.918Z,3.67
2019-01-31T19:43:16.319Z,3.67
2019-01-31T19:45:50.353Z,3.76
2019-01-31T19:48:19.768Z,3.91
2019-01-31T19:50:49.159Z,5.06
2019-01-31T19:53:18.614Z,5.06
2019-01-31T19:55:47.967Z,5.38
2019-01-31T19:58:19.482Z,5.24
2019-01-31T20:00:48.840Z,4.89
2019-01-31T20:03:19.749Z,4.96
2019-01-31T20:05:53.310Z,5.15
2019-01-31T20:08:22.720Z,4.98
2019-01-31T20:10:52.292Z,4.34
2019-01-31T20:13:21.953Z,3.90
2019-01-31T20:15:52.290Z,3.62
2019-01-31T20:18:21.981Z,3.52
2019-01-31T20:20:51.516Z,3.43
2019-01-31T20:23:20.883Z,3.39
2019-01-31T20:25:50.449Z,3.37
2019-01-31T20:28:19.928Z,3.29
2019-01-31T20:30:50.749Z,3.18
2019-01-31T20:33:20.168Z,3.28
2019-01-31T20:35:49.533Z,3.28
2019-01-31T20:38:20.870Z,3.37
2019-01-31T20:40:50.249Z,3.19
2019-01-31T20:43:19.643Z,3.08
2019-01-31T20:45:49.016Z,3.07
2019-01-31T20:48:18.366Z,3.20
2019-01-31T20:50:47.738Z,3.20
2019-01-31T20:53:18.987Z,3.19
2019-01-31T20:55:48.377Z,3.14
2019-01-31T20:58:17.757Z,3.06
2019-01-31T21:00:48.232Z,2.87
2019-01-31T21:03:20.817Z,2.81
2019-01-31T21:05:50.184Z,2.83
2019-01-31T21:08:19.534Z,3.00
2019-01-31T21:10:49.683Z,3.11
2019-01-31T21:13:19.113Z,3.20
2019-01-31T21:15:48.628Z,3.20
2019-01-31T21:18:17.992Z,3.67
2019-01-31T21:20:47.386Z,4.19
2019-01-31T21:23:16.735Z,4.64
2019-01-31T21:25:46.103Z,4.96
2019-01-31T21:28:15.572Z,4.56
2019-01-31T21:30:44.926Z,4.25
2019-01-31T21:33:17.539Z,4.73
2019-01-31T21:35:48.311Z,4.69
2019-01-31T21:38:17.729Z,4.55
2019-01-31T21:40:49.153Z,4.35
2019-01-31T21:43:18.276Z,4.47
2019-01-31T21:45:47.652Z,4.25
2019-01-31T21:48:17.080Z,3.91
2019-01-31T21:50:46.416Z,3.90
2019-01-31T21:53:18.739Z,4.05
2019-01-31T21:55:48.123Z,3.67
2019-01-31T21:58:17.609Z,3.32
2019-01-31T22:00:47.424Z,3.11
2019-01-31T22:03:20.059Z,3.11
2019-01-31T22:05:49.664Z,3.08
2019-01-31T22:08:19.226Z,3.12
2019-01-31T22:10:48.555Z,2.91
2019-01-31T22:13:17.948Z,2.91
2019-01-31T22:15:47.427Z,2.91
2019-01-31T22:18:17.983Z,2.68
2019-01-31T22:20:47.663Z,2.68
2019-01-31T22:23:17.266Z,2.83
2019-01-31T22:25:47.164Z,2.90
2019-01-31T22:28:16.561Z,2.90
2019-01-31T22:30:45.883Z,2.94
2019-01-31T22:33:15.273Z,2.94
2019-01-31T22:35:45.699Z,2.94
2019-01-31T22:38:15.067Z,2.78
2019-01-31T22:40:44.410Z,2.53
2019-01-31T22:43:13.788Z,2.41
2019-01-31T22:45:43.161Z,2.30
2019-01-31T22:48:15.153Z,2.03
2019-01-31T22:50:44.835Z,2.03
2019-01-31T22:53:14.606Z,2.08
2019-01-31T22:55:44.017Z,2.14
2019-01-31T22:58:13.780Z,2.11
2019-01-31T23:01:16.989Z,2.01
2019-01-31T23:03:46.387Z,2.05
2019-01-31T23:06:16.753Z,2.31
2019-01-31T23:08:46.103Z,2.14
2019-01-31T23:11:16.001Z,2.33
2019-01-31T23:13:45.377Z,2.03
2019-01-31T23:16:14.830Z,2.09
2019-01-31T23:18:44.206Z,1.97
2019-01-31T23:21:13.854Z,2.14
2019-01-31T23:23:43.220Z,1.81
2019-01-31T23:26:12.658Z,1.68
2019-01-31T23:28:44.769Z,1.89
2019-01-31T23:31:13.940Z,1.85
2019-01-31T23:33:43.461Z,1.96
2019-01-31T23:36:13.076Z,1.83
2019-01-31T23:38:42.881Z,2.03
2019-01-31T23:41:12.872Z,1.78
2019-01-31T23:43:42.737Z,2.02
2019-01-31T23:46:12.070Z,1.83
2019-01-31T23:48:41.528Z,1.74
2019-01-31T23:51:10.863Z,1.68
2019-01-31T23:53:40.220Z,1.66
2019-01-31T23:56:09.724Z,1.70
2019-01-31T23:58:40.015Z,1.79
